Time;durP1;ratioP1;P1;durP2;ratioP2;P2;SDS_P1;SDS_P2;PMS_P1;PMS_P2;Temp;Humidity;BMP_temperature;BMP_pressure;BME280_temperature;BME280_humidity;BME280_pressure;Samples;Min_cycle;Max_cycle;Signal;HPM_P1;HPM_P2
2022/06/25 00:00:27;;;;;;;12.27;4.30;;;;;;;16.64;100.00;100688.69;5052131;28;20395;-63
2022/06/25 00:02:52;;;;;;;11.27;4.20;;;;;;;16.63;100.00;100683.38;5052200;28;20111;-64
2022/06/25 00:05:29;;;;;;;12.63;4.20;;;;;;;16.64;100.00;100686.03;5052062;28;20057;-64
2022/06/25 00:07:59;;;;;;;13.02;4.40;;;;;;;16.66;100.00;100696.66;5047390;28;20032;-64
2022/06/25 00:10:25;;;;;;;11.23;4.13;;;;;;;16.63;100.00;100694.97;5048480;28;20027;-62
2022/06/25 00:12:50;;;;;;;11.25;4.00;;;;;;;16.65;100.00;100703.78;5053322;28;20025;-63
2022/06/25 00:15:16;;;;;;;11.95;4.18;;;;;;;16.63;100.00;100697.63;5056146;28;20032;-64
2022/06/25 00:17:41;;;;;;;11.35;4.20;;;;;;;16.59;100.00;100700.41;5056273;28;20021;-65
2022/06/25 00:20:07;;;;;;;11.07;4.10;;;;;;;16.55;100.00;100697.78;5055772;28;20021;-61
2022/06/25 00:22:32;;;;;;;11.88;4.30;;;;;;;16.58;100.00;100702.19;5055646;28;20124;-62
2022/06/25 00:24:58;;;;;;;13.00;4.38;;;;;;;16.58;100.00;100698.66;5056070;28;20048;-61
2022/06/25 00:27:23;;;;;;;14.05;4.20;;;;;;;16.52;100.00;100695.19;5055776;28;20013;-61
2022/06/25 00:29:49;;;;;;;13.32;4.20;;;;;;;16.50;100.00;100697.03;5055615;28;20067;-61
2022/06/25 00:32:14;;;;;;;11.52;4.05;;;;;;;16.44;100.00;100704.28;5055649;28;20158;-61
2022/06/25 00:34:40;;;;;;;13.07;4.13;;;;;;;16.43;100.00;100706.06;5055497;28;20037;-61
2022/06/25 00:37:06;;;;;;;12.95;4.40;;;;;;;16.38;100.00;100700.84;5055449;28;20376;-61
2022/06/25 00:39:32;;;;;;;12.15;4.32;;;;;;;16.34;100.00;100701.81;5055584;28;20021;-62
2022/06/25 00:41:57;;;;;;;13.55;4.22;;;;;;;16.31;100.00;100698.34;5055359;28;20035;-61
2022/06/25 00:44:23;;;;;;;14.82;4.70;;;;;;;16.30;100.00;100700.13;5055375;28;20025;-61
2022/06/25 00:46:48;;;;;;;13.48;4.70;;;;;;;16.28;100.00;100703.72;5055563;28;20033;-61
2022/06/25 00:49:14;;;;;;;14.32;4.60;;;;;;;16.21;100.00;100705.66;5055088;28;20135;-61
2022/06/25 00:51:41;;;;;;;14.93;4.53;;;;;;;16.17;100.00;100703.97;5055029;28;20490;-61
2022/06/25 00:54:08;;;;;;;14.43;4.60;;;;;;;16.17;100.00;100719.97;5055331;28;20033;-62
2022/06/25 00:56:37;;;;;;;14.23;4.50;;;;;;;16.15;100.00;100712.00;5054920;28;20468;-61
2022/06/25 00:59:05;;;;;;;15.82;4.68;;;;;;;16.10;100.00;100707.69;5055058;28;20025;-61
2022/06/25 01:01:33;;;;;;;14.75;4.72;;;;;;;16.07;100.00;100718.41;5055182;28;20093;-63
2022/06/25 01:03:58;;;;;;;13.20;4.88;;;;;;;16.06;100.00;100713.97;5054958;28;20052;-64
2022/06/25 01:06:23;;;;;;;12.85;4.60;;;;;;;16.00;100.00;100723.88;5055008;28;20538;-64
2022/06/25 01:08:49;;;;;;;16.73;4.95;;;;;;;16.00;100.00;100718.53;5055086;28;20033;-64
2022/06/25 01:11:15;;;;;;;14.20;4.70;;;;;;;15.94;100.00;100734.63;5054932;28;20025;-64
2022/06/25 01:13:40;;;;;;;15.35;4.97;;;;;;;15.91;100.00;100715.19;5054765;28;20017;-63
2022/06/25 01:16:06;;;;;;;15.35;4.90;;;;;;;15.88;100.00;100729.44;5055124;28;20033;-64
2022/06/25 01:18:31;;;;;;;15.80;5.00;;;;;;;15.83;100.00;100721.53;5054722;28;20025;-63
2022/06/25 01:20:57;;;;;;;14.20;4.80;;;;;;;15.84;100.00;100727.72;5054929;28;20091;-64
2022/06/25 01:23:22;;;;;;;14.20;4.93;;;;;;;15.88;100.00;100733.91;5054576;28;20025;-64
2022/06/25 01:25:47;;;;;;;15.05;5.32;;;;;;;15.90;100.00;100738.28;5053529;28;20095;-63
2022/06/25 01:28:13;;;;;;;16.67;5.30;;;;;;;15.91;100.00;100739.16;5054548;28;20079;-64
2022/06/25 01:30:38;;;;;;;15.27;5.00;;;;;;;15.88;100.00;100733.91;5054597;28;20021;-63
2022/06/25 01:33:08;;;;;;;15.95;5.32;;;;;;;15.81;100.00;100746.44;5054390;28;20021;-64
2022/06/25 01:35:34;;;;;;;15.57;5.32;;;;;;;15.77;100.00;100750.03;5054837;28;20100;-64
2022/06/25 01:38:00;;;;;;;16.65;5.38;;;;;;;15.68;100.00;100746.66;5054387;28;20373;-63
2022/06/25 01:40:25;;;;;;;17.45;5.38;;;;;;;15.61;100.00;100752.09;5054161;28;20032;-64
2022/06/25 01:42:59;;;;;;;16.25;5.40;;;;;;;15.59;100.00;100746.81;5054623;28;20408;-64
2022/06/25 01:45:32;;;;;;;15.82;5.38;;;;;;;15.56;100.00;100754.84;5050578;28;20052;-63
2022/06/25 01:47:59;;;;;;;16.30;5.25;;;;;;;15.51;100.00;100757.59;5050807;28;20021;-63
2022/06/25 01:50:25;;;;;;;16.45;5.22;;;;;;;15.47;100.00;100760.34;5053943;28;20032;-61
2022/06/25 01:52:51;;;;;;;16.85;5.43;;;;;;;15.46;100.00;100758.59;5054484;28;20036;-61
2022/06/25 01:55:18;;;;;;;16.42;5.50;;;;;;;15.42;100.00;100764.88;5054255;28;20013;-62
2022/06/25 01:57:43;;;;;;;15.60;5.32;;;;;;;15.43;100.00;100767.50;5054066;28;20025;-62
2022/06/25 02:00:16;;;;;;;17.30;5.70;;;;;;;15.45;100.00;100773.69;5054199;28;20045;-61
2022/06/25 02:02:42;;;;;;;17.65;5.50;;;;;;;15.44;100.00;100773.72;5054074;28;20021;-62
2022/06/25 02:05:08;;;;;;;14.63;5.38;;;;;;;15.39;100.00;100778.25;5053892;28;20362;-61
2022/06/25 02:07:34;;;;;;;16.65;5.47;;;;;;;15.38;100.00;100777.38;5053995;28;20029;-62
2022/06/25 02:09:59;;;;;;;15.90;5.40;;;;;;;15.33;100.00;100774.78;5053586;28;20525;-61
2022/06/25 02:12:24;;;;;;;17.85;5.68;;;;;;;15.27;100.00;100790.84;5053616;28;20075;-61
2022/06/25 02:14:51;;;;;;;17.48;5.78;;;;;;;15.23;100.00;100789.16;5053797;28;20070;-62
2022/06/25 02:17:16;;;;;;;18.52;5.80;;;;;;;15.22;100.00;100787.38;5053722;28;20025;-61
2022/06/25 02:19:41;;;;;;;17.70;5.80;;;;;;;15.17;100.00;100789.22;5053466;28;20494;-62
2022/06/25 02:22:07;;;;;;;18.02;6.05;;;;;;;15.18;100.00;100798.97;5053936;28;20033;-62
2022/06/25 02:24:32;;;;;;;16.35;5.70;;;;;;;15.12;100.00;100791.97;5052331;28;20032;-62
2022/06/25 02:26:58;;;;;;;17.70;5.75;;;;;;;15.10;100.00;100792.88;5053537;28;20021;-63
2022/06/25 02:29:24;;;;;;;16.73;5.78;;;;;;;15.11;100.00;100794.66;5049246;28;20376;-62
2022/06/25 02:31:49;;;;;;;17.58;5.85;;;;;;;15.10;100.00;100798.22;5053130;28;20033;-61
2022/06/25 02:34:15;;;;;;;17.83;6.00;;;;;;;15.07;100.00;100803.59;5053711;28;20075;-61
2022/06/25 02:36:40;;;;;;;18.40;5.85;;;;;;;15.05;100.00;100808.94;5052811;28;20021;-63
2022/06/25 02:39:06;;;;;;;18.17;5.50;;;;;;;15.06;100.00;100815.16;5053248;28;20025;-63
2022/06/25 02:41:31;;;;;;;18.98;6.13;;;;;;;15.04;100.00;100816.94;5053294;28;20095;-64
2022/06/25 02:43:56;;;;;;;18.45;5.80;;;;;;;15.04;100.00;100814.28;5053209;28;20028;-64
2022/06/25 02:46:21;;;;;;;17.60;5.75;;;;;;;15.04;100.00;100819.59;5053105;28;20480;-63
2022/06/25 02:48:47;;;;;;;17.98;5.82;;;;;;;14.98;100.00;100810.81;5052969;28;20534;-64
2022/06/25 02:51:12;;;;;;;17.30;5.68;;;;;;;14.98;100.00;100824.13;5053110;28;20108;-64
2022/06/25 02:53:37;;;;;;;17.90;5.85;;;;;;;14.98;100.00;100828.56;5052879;28;20112;-63
2022/06/25 02:58:56;;;;;;;18.05;6.30;;;;;;;14.98;100.00;100836.53;5053330;28;20040;-65
2022/06/25 03:01:26;;;;;;;17.45;6.18;;;;;;;15.03;100.00;100834.72;5052786;28;20025;-64
2022/06/25 03:03:52;;;;;;;18.40;6.70;;;;;;;15.02;100.00;100832.06;5052678;28;20103;-66
2022/06/25 03:06:18;;;;;;;17.85;6.50;;;;;;;15.03;100.00;100831.16;5052991;28;20013;-64
2022/06/25 03:08:44;;;;;;;17.50;6.50;;;;;;;15.02;100.00;100826.75;5052591;28;20361;-65
2022/06/25 03:11:10;;;;;;;18.30;6.70;;;;;;;14.98;100.00;100825.91;5052756;28;20033;-64
2022/06/25 03:13:36;;;;;;;19.35;6.70;;;;;;;14.95;100.00;100821.47;5052921;28;20029;-64
2022/06/25 03:16:04;;;;;;;18.27;6.78;;;;;;;14.95;100.00;100820.63;5052647;28;20472;-64
2022/06/25 03:18:29;;;;;;;19.77;7.20;;;;;;;14.90;100.00;100826.00;5052535;28;20029;-64
2022/06/25 03:20:54;;;;;;;20.83;7.15;;;;;;;14.93;100.00;100830.41;5052777;28;20017;-64
2022/06/25 03:23:20;;;;;;;19.33;7.10;;;;;;;14.94;100.00;100822.41;5052422;28;20423;-64
2022/06/25 03:25:46;;;;;;;21.13;7.20;;;;;;;14.93;100.00;100825.09;5052277;28;20035;-64
2022/06/25 03:28:12;;;;;;;19.13;7.35;;;;;;;14.95;100.00;100832.13;5052924;28;20071;-64
2022/06/25 03:30:37;;;;;;;19.45;7.20;;;;;;;14.96;100.00;100825.91;5052435;28;20038;-63
2022/06/25 03:33:03;;;;;;;19.70;7.05;;;;;;;15.01;100.00;100835.63;5052676;28;20102;-64
2022/06/25 03:35:29;;;;;;;19.55;6.97;;;;;;;15.04;100.00;100838.25;5051631;28;20029;-64
2022/06/25 03:37:55;;;;;;;17.90;6.70;;;;;;;15.08;100.00;100838.16;5048376;28;20047;-64
2022/06/25 03:40:20;;;;;;;19.15;7.10;;;;;;;15.14;100.00;100838.09;5052449;28;20025;-63
2022/06/25 03:42:45;;;;;;;17.48;6.07;;;;;;;15.20;100.00;100846.88;5052531;28;20472;-64
2022/06/25 03:45:11;;;;;;;18.83;6.57;;;;;;;15.24;100.00;100840.63;5052300;28;20108;-64
2022/06/25 03:47:36;;;;;;;17.95;6.22;;;;;;;15.29;100.00;100844.97;5053179;28;20025;-64
2022/06/25 03:50:02;;;;;;;17.85;6.50;;;;;;;15.39;100.00;100844.81;5056126;28;20049;-63
2022/06/25 03:52:28;;;;;;;18.10;6.40;;;;;;;15.40;100.00;100838.59;5056602;28;20025;-64
2022/06/25 03:54:53;;;;;;;18.00;6.30;;;;;;;15.43;100.00;100843.88;5056724;28;20029;-64
2022/06/25 03:57:19;;;;;;;17.95;6.70;;;;;;;15.47;100.00;100848.25;5056143;28;20029;-64
2022/06/25 03:59:45;;;;;;;20.33;6.50;;;;;;;15.47;100.00;100846.47;5056180;28;20474;-65
2022/06/25 04:02:10;;;;;;;18.27;6.40;;;;;;;15.48;100.00;100844.69;5056514;28;20060;-63
2022/06/25 04:04:35;;;;;;;17.00;6.10;;;;;;;15.48;100.00;100842.03;5056259;28;20036;-64
2022/06/25 04:07:01;;;;;;;18.10;6.38;;;;;;;15.49;100.00;100844.66;5056064;28;20033;-61
2022/06/25 04:09:26;;;;;;;17.75;6.25;;;;;;;15.50;100.00;100840.22;5056522;28;20025;-61
2022/06/25 04:11:51;;;;;;;17.38;6.15;;;;;;;15.53;100.00;100856.16;5055688;28;20069;-61
2022/06/25 04:14:17;;;;;;;18.70;6.35;;;;;;;15.57;100.00;100857.00;5056238;28;20032;-62
2022/06/25 04:16:42;;;;;;;17.05;6.20;;;;;;;15.65;100.00;100852.41;5056370;28;20029;-61
2022/06/25 04:19:07;;;;;;;18.50;6.15;;;;;;;15.72;100.00;100855.84;5055926;28;20025;-62
2022/06/25 04:21:33;;;;;;;16.05;5.97;;;;;;;15.82;100.00;100852.16;5056049;28;20472;-61
2022/06/25 04:23:58;;;;;;;17.27;5.97;;;;;;;15.89;100.00;100837.81;5055795;28;20025;-61
2022/06/25 04:26:23;;;;;;;14.90;5.75;;;;;;;15.97;100.00;100849.19;5055719;28;20502;-62
2022/06/25 04:29:04;;;;;;;18.45;5.95;;;;;;;16.05;100.00;100843.75;5055739;28;20025;-61
2022/06/25 04:31:33;;;;;;;18.13;5.90;;;;;;;16.14;100.00;100856.03;5052608;28;20036;-61
2022/06/25 04:33:59;;;;;;;17.02;5.70;;;;;;;16.17;100.00;100866.66;5052036;28;20471;-62
2022/06/25 04:36:25;;;;;;;17.75;6.00;;;;;;;16.20;100.00;100866.59;5051441;28;20029;-61
2022/06/25 04:38:51;;;;;;;17.40;6.10;;;;;;;16.26;100.00;100868.25;5055928;28;20025;-61
2022/06/25 04:41:17;;;;;;;16.50;5.70;;;;;;;16.31;100.00;100871.69;5055546;28;20074;-61
2022/06/25 04:43:43;;;;;;;17.75;5.78;;;;;;;16.35;100.00;100874.31;5055587;28;20044;-61
2022/06/25 04:46:08;;;;;;;14.48;5.53;;;;;;;16.37;100.00;100875.13;5055691;28;20025;-63
2022/06/25 04:48:33;;;;;;;17.00;5.57;;;;;;;16.39;100.00;100880.44;5054711;28;20175;-63
2022/06/25 04:50:59;;;;;;;17.38;5.60;;;;;;;16.45;100.00;100885.66;5054124;28;20036;-63
2022/06/25 04:53:24;;;;;;;17.33;5.80;;;;;;;16.51;100.00;100884.66;5054231;28;20083;-64
2022/06/25 04:55:49;;;;;;;16.00;5.70;;;;;;;16.55;100.00;100878.34;5054236;28;20029;-64
2022/06/25 04:58:15;;;;;;;18.73;6.53;;;;;;;16.64;100.00;100883.50;5053597;28;20102;-63
2022/06/25 05:00:40;;;;;;;16.20;5.68;;;;;;;16.68;100.00;100885.19;5053976;28;20029;-64
2022/06/25 05:03:09;;;;;;;14.10;5.32;;;;;;;16.72;100.00;100891.38;5053827;28;20017;-64
2022/06/25 05:05:36;;;;;;;16.48;5.80;;;;;;;16.74;100.00;100898.41;5053680;28;20464;-62
2022/06/25 05:08:01;;;;;;;15.05;5.30;;;;;;;16.72;100.00;100896.72;5053887;28;20458;-64
2022/06/25 05:10:26;;;;;;;19.20;5.95;;;;;;;16.69;100.00;100905.66;5053669;28;20032;-64
2022/06/25 05:15:36;;;;;;;16.05;5.45;;;;;;;16.63;100.00;100900.44;5051650;28;20032;-63
2022/06/25 05:18:02;;;;;;;18.38;5.85;;;;;;;16.62;100.00;100903.16;5053712;28;20033;-63
2022/06/25 05:20:27;;;;;;;15.68;5.43;;;;;;;16.60;100.00;100903.19;5053573;28;20365;-64
2022/06/25 05:22:53;;;;;;;15.77;5.60;;;;;;;16.62;100.00;100909.34;5053699;28;20029;-64
2022/06/25 05:25:18;;;;;;;17.90;5.75;;;;;;;16.66;100.00;100911.06;5052367;28;20459;-64
2022/06/25 05:27:44;;;;;;;16.15;5.50;;;;;;;16.77;100.00;100909.97;5053379;28;20083;-63
2022/06/25 05:30:10;;;;;;;16.17;5.38;;;;;;;16.84;100.00;100906.25;5053361;28;20506;-63
2022/06/25 05:32:35;;;;;;;14.98;5.47;;;;;;;16.92;100.00;100922.13;5053605;28;20028;-64
2022/06/25 05:35:01;;;;;;;17.20;5.35;;;;;;;16.98;100.00;100906.88;5053257;28;20029;-64
2022/06/25 05:37:26;;;;;;;15.05;5.43;;;;;;;17.06;100.00;100917.38;5053260;28;20071;-64
2022/06/25 05:39:52;;;;;;;16.35;5.43;;;;;;;17.15;100.00;100917.19;5053128;28;20033;-67
2022/06/25 05:42:17;;;;;;;18.15;5.72;;;;;;;17.21;100.00;100921.50;5053048;28;20025;-63
2022/06/25 05:44:45;;;;;;;18.20;5.60;;;;;;;17.25;100.00;100912.53;5053526;28;20476;-64
2022/06/25 05:47:11;;;;;;;17.80;5.55;;;;;;;17.30;100.00;100923.09;5053322;28;20017;-66
2022/06/25 05:49:36;;;;;;;18.45;5.60;;;;;;;17.27;100.00;100932.09;5016932;28;1054032;-63
2022/06/25 05:52:01;;;;;;;17.63;5.40;;;;;;;17.24;100.00;100926.78;5054443;28;20447;-63
2022/06/25 05:54:27;;;;;;;17.08;5.60;;;;;;;17.25;100.00;100926.75;5054251;28;20499;-65
2022/06/25 05:56:52;;;;;;;17.38;5.47;;;;;;;17.27;100.00;100932.09;5054057;28;20028;-65
2022/06/25 05:59:17;;;;;;;18.83;5.90;;;;;;;17.26;100.00;100935.66;5053829;28;20025;-68
2022/06/25 06:01:43;;;;;;;16.35;5.53;;;;;;;17.39;100.00;100942.47;5053874;28;20361;-65
2022/06/25 06:04:08;;;;;;;16.73;5.78;;;;;;;17.51;100.00;100941.31;5054301;28;20040;-64
2022/06/25 06:06:33;;;;;;;18.05;5.93;;;;;;;17.55;100.00;100942.16;5052703;28;20087;-66
2022/06/25 06:08:59;;;;;;;18.50;5.75;;;;;;;17.68;100.00;100946.28;5053649;28;20464;-64
2022/06/25 06:11:24;;;;;;;17.60;5.90;;;;;;;17.78;100.00;100947.81;5052928;28;20029;-62
2022/06/25 06:13:50;;;;;;;16.05;5.70;;;;;;;17.86;100.00;100949.44;5053702;28;20067;-64
2022/06/25 06:16:15;;;;;;;17.23;5.40;;;;;;;17.94;100.00;100947.50;5053940;28;20052;-63
2022/06/25 06:18:40;;;;;;;16.05;5.18;;;;;;;18.05;100.00;100950.75;5053626;28;20471;-65
2022/06/25 06:21:06;;;;;;;17.92;5.57;;;;;;;18.15;100.00;100954.09;5053454;28;20036;-61
2022/06/25 06:23:31;;;;;;;17.35;5.85;;;;;;;18.19;100.00;100961.13;5053359;28;20032;-65
2022/06/25 06:25:56;;;;;;;18.00;5.57;;;;;;;18.17;100.00;100957.59;5052577;28;20041;-63
2022/06/25 06:28:21;;;;;;;17.27;5.50;;;;;;;18.28;100.00;100963.56;5052939;28;20025;-66
2022/06/25 06:30:47;;;;;;;15.80;5.30;;;;;;;18.36;100.00;100960.66;5053310;28;20040;-65
2022/06/25 06:33:12;;;;;;;16.77;5.50;;;;;;;18.45;100.00;100960.44;5053282;28;20032;-63
2022/06/25 06:35:38;;;;;;;16.20;4.90;;;;;;;18.34;100.00;100962.50;5053041;28;20021;-64
2022/06/25 06:38:03;;;;;;;16.38;5.22;;;;;;;18.31;100.00;100967.09;5053197;28;20025;-66
2022/06/25 06:40:28;;;;;;;18.20;5.32;;;;;;;18.33;100.00;100966.09;5053112;28;20089;-65
2022/06/25 06:42:55;;;;;;;16.13;5.20;;;;;;;18.35;100.00;100969.63;5052941;28;20028;-62
2022/06/25 06:45:21;;;;;;;15.38;5.05;;;;;;;18.33;100.00;100966.09;5053268;28;20090;-64
2022/06/25 06:47:46;;;;;;;16.48;5.25;;;;;;;18.26;100.00;100972.53;5052835;28;20028;-67
2022/06/25 06:50:12;;;;;;;17.50;5.20;;;;;;;18.27;100.00;100966.28;5052516;28;20040;-64
2022/06/25 06:52:37;;;;;;;16.25;5.20;;;;;;;18.16;100.00;100969.22;5052931;28;20349;-64
2022/06/25 06:55:04;;;;;;;17.20;5.50;;;;;;;18.16;100.00;100968.34;5052595;28;20032;-65
2022/06/25 06:57:31;;;;;;;16.50;5.50;;;;;;;18.20;100.00;100975.38;5052682;28;20480;-66
2022/06/25 06:59:58;;;;;;;16.40;4.97;;;;;;;18.24;100.00;100971.69;5049015;28;20414;-67
2022/06/25 07:02:25;;;;;;;16.67;4.82;;;;;;;18.30;100.00;100979.56;5052803;28;20025;-66
2022/06/25 07:04:52;;;;;;;16.77;5.05;;;;;;;18.37;100.00;100962.44;5052565;28;20103;-64
2022/06/25 07:07:17;;;;;;;17.30;5.13;;;;;;;18.47;100.00;100976.47;5053136;28;20377;-68
2022/06/25 07:09:42;;;;;;;15.02;4.68;;;;;;;18.49;100.00;100977.28;5052818;28;20024;-65
2022/06/25 07:12:08;;;;;;;16.13;4.50;;;;;;;18.45;100.00;100965.78;5052786;28;20029;-66
2022/06/25 07:14:33;;;;;;;15.25;4.68;;;;;;;18.45;100.00;100971.16;5052545;28;20025;-66
2022/06/25 07:16:58;;;;;;;16.13;4.75;;;;;;;18.46;100.00;100967.56;5052571;28;20553;-66
2022/06/25 07:19:24;;;;;;;15.70;4.70;;;;;;;18.62;100.00;100973.38;5052654;28;20052;-63
2022/06/25 07:21:49;;;;;;;15.93;4.93;;;;;;;18.74;100.00;100968.59;5052429;28;20076;-68
2022/06/25 07:24:14;;;;;;;17.25;4.90;;;;;;;18.91;100.00;100976.19;5052618;28;20028;-64
2022/06/25 07:26:40;;;;;;;15.05;4.80;;;;;;;18.91;100.00;100978.88;5052594;28;20104;-66
2022/06/25 07:29:05;;;;;;;15.50;4.88;;;;;;;18.92;100.00;100977.97;5052184;28;20025;-65
2022/06/25 07:31:30;;;;;;;16.25;5.22;;;;;;;18.92;100.00;100983.31;5052111;28;20025;-66
2022/06/25 07:33:56;;;;;;;16.42;5.10;;;;;;;18.89;100.00;100983.41;5052741;28;20049;-65
2022/06/25 07:36:21;;;;;;;16.88;4.70;;;;;;;18.88;100.00;100976.28;5052387;28;20068;-67
2022/06/25 07:38:47;;;;;;;15.68;4.82;;;;;;;19.11;100.00;100981.84;5050906;28;20037;-62
2022/06/25 07:41:12;;;;;;;13.57;4.70;;;;;;;19.54;100.00;100978.81;5052370;28;20025;-62
2022/06/25 07:43:37;;;;;;;15.82;4.70;;;;;;;19.77;100.00;100987.00;5052118;28;20032;-62
2022/06/25 07:46:04;;;;;;;13.75;4.80;;;;;;;19.73;100.00;100989.84;5052086;28;20036;-63
2022/06/25 07:48:30;;;;;;;15.05;4.85;;;;;;;19.64;100.00;100991.91;5052064;28;20067;-62
2022/06/25 07:53:39;;;;;;;15.25;4.55;;;;;;;19.57;100.00;100992.13;5049939;28;20483;-62
2022/06/25 07:56:05;;;;;;;15.40;4.43;;;;;;;19.60;100.00;100992.94;5052311;28;20021;-62
2022/06/25 07:58:31;;;;;;;13.95;4.53;;;;;;;19.69;100.00;100992.63;5052124;28;20428;-62
2022/06/25 08:00:56;;;;;;;13.57;4.13;;;;;;;19.77;100.00;100987.00;5050702;28;20057;-64
2022/06/25 08:03:21;;;;;;;14.73;4.10;;;;;;;19.75;100.00;101004.09;5052357;28;20029;-67
2022/06/25 08:05:47;;;;;;;12.98;3.90;;;;;;;19.76;100.00;100990.66;5051985;28;20056;-64
2022/06/25 08:08:13;;;;;;;13.27;4.10;;;;;;;19.79;100.00;100985.22;5052019;28;20057;-65
2022/06/25 08:10:41;;;;;;;13.48;4.03;;;;;;;19.86;100.00;100996.59;5052085;28;20029;-64
2022/06/25 08:13:07;;;;;;;12.27;4.18;;;;;;;19.78;100.00;100994.16;5051699;28;20471;-63
2022/06/25 08:15:32;;;;;;;10.05;3.92;;;;;;;19.62;100.00;100991.06;5051572;28;20460;-65
2022/06/25 08:17:58;;;;;;;13.75;4.20;;;;;;;19.47;100.00;100989.75;5052051;28;20112;-64
2022/06/25 08:20:23;;;;;;;12.98;4.10;;;;;;;19.32;100.00;100993.75;5051848;28;20108;-63
2022/06/25 08:22:49;;;;;;;14.82;4.30;;;;;;;19.28;100.00;100985.84;5052036;28;20025;-63
2022/06/25 08:25:15;;;;;;;13.25;4.10;;;;;;;19.13;100.00;100995.22;5051960;28;20357;-64
2022/06/25 08:27:49;;;;;;;13.82;4.00;;;;;;;19.03;100.00;101002.63;5051987;28;20029;-65
2022/06/25 08:30:15;;;;;;;14.10;3.90;;;;;;;18.87;100.00;101001.31;5051429;28;20101;-64
2022/06/25 08:32:40;;;;;;;10.93;4.00;;;;;;;18.46;100.00;100999.69;5051946;28;20434;-63
2022/06/25 08:35:06;;;;;;;12.23;4.00;;;;;;;18.44;100.00;101000.63;5054636;28;20025;-64
2022/06/25 08:37:31;;;;;;;13.25;4.00;;;;;;;18.75;100.00;101003.34;5055193;28;20070;-63
2022/06/25 08:39:56;;;;;;;11.55;4.00;;;;;;;19.19;100.00;100999.50;5055734;28;20028;-64
2022/06/25 08:42:22;;;;;;;15.93;4.30;;;;;;;19.61;100.00;100993.78;5055390;28;20051;-64
2022/06/25 08:44:47;;;;;;;17.27;4.30;;;;;;;19.82;100.00;100995.84;5055314;28;20428;-62
2022/06/25 08:47:13;;;;;;;12.68;3.95;;;;;;;20.03;100.00;101001.44;5055656;28;20025;-63
2022/06/25 08:49:38;;;;;;;13.65;3.63;;;;;;;20.38;100.00;101010.13;5055005;28;20114;-63
2022/06/25 08:52:06;;;;;;;10.80;3.65;;;;;;;20.53;100.00;100998.88;5051192;28;20380;-63
2022/06/25 08:54:33;;;;;;;13.68;3.90;;;;;;;20.90;100.00;101002.94;5055543;28;20436;-63
2022/06/25 08:56:59;;;;;;;12.00;3.60;;;;;;;21.37;100.00;101006.63;5055447;28;20032;-64
2022/06/25 08:59:25;;;;;;;14.52;3.80;;;;;;;21.41;100.00;100997.50;5055284;28;20025;-64
2022/06/25 09:01:50;;;;;;;10.52;3.55;;;;;;;21.45;100.00;101004.53;5055386;28;20431;-63
2022/06/25 09:04:16;;;;;;;10.82;3.40;;;;;;;21.96;100.00;101004.34;5055180;28;20025;-63
2022/06/25 09:06:42;;;;;;;11.43;3.83;;;;;;;22.09;100.00;101002.91;5055135;28;20028;-64
2022/06/25 09:09:09;;;;;;;12.55;3.90;;;;;;;21.77;100.00;101005.97;5055050;28;20175;-64
2022/06/25 09:11:58;;;;;;;11.52;3.30;;;;;;;21.83;100.00;101009.34;5054598;28;20068;-64
2022/06/25 09:14:29;;;;;;;13.23;3.80;;;;;;;21.75;100.00;101009.66;5054701;28;20025;-63
2022/06/25 09:16:59;;;;;;;10.95;3.60;;;;;;;21.68;100.00;101005.44;5054847;28;20028;-65
2022/06/25 09:19:37;;;;;;;12.20;4.10;;;;;;;21.32;100.00;101005.91;5054626;28;20472;-64
2022/06/25 09:22:27;;;;;;;11.00;3.67;;;;;;;21.02;100.00;101011.50;5046779;28;20129;-64
2022/06/25 09:24:55;;;;;;;11.52;3.40;;;;;;;20.92;100.00;101000.19;5041320;28;20366;-62
2022/06/25 09:27:36;;;;;;;14.55;3.40;;;;;;;20.95;100.00;101007.28;5052083;28;20468;-62
2022/06/25 09:30:12;;;;;;;9.77;3.38;;;;;;;21.15;100.00;101023.53;5054052;28;20032;-65
2022/06/25 09:32:46;;;;;;;9.70;3.30;;;;;;;21.39;100.00;101011.00;5054058;28;20029;-62
2022/06/25 09:35:12;;;;;;;12.23;3.50;;;;;;;21.70;100.00;101003.59;5054017;28;20344;-66
2022/06/25 09:37:39;;;;;;;11.18;3.38;;;;;;;21.84;100.00;101011.97;5053263;28;20029;-67
2022/06/25 09:40:06;;;;;;;13.88;3.40;;;;;;;22.21;100.00;101012.31;5054458;28;20017;-65
2022/06/25 09:42:34;;;;;;;10.43;3.20;;;;;;;22.38;100.00;101012.50;5054188;28;20032;-63
2022/06/25 09:45:08;;;;;;;10.70;3.35;;;;;;;22.24;100.00;101009.47;5053440;28;20036;-67
2022/06/25 09:47:36;;;;;;;9.52;3.33;;;;;;;22.45;100.00;100996.94;5053250;28;20037;-66
2022/06/25 09:50:16;;;;;;;12.13;3.60;;;;;;;22.76;100.00;100998.28;5053771;28;20041;-66
2022/06/25 09:52:56;;;;;;;12.57;3.30;;;;;;;22.97;100.00;101004.56;5054064;28;20108;-68
2022/06/25 09:55:24;;;;;;;9.75;3.10;;;;;;;22.82;100.00;101006.13;5050970;28;20025;-66
2022/06/25 09:57:51;;;;;;;7.93;3.10;;;;;;;22.98;100.00;101009.88;5054063;28;20056;-67
2022/06/25 10:00:17;;;;;;;10.10;3.00;;;;;;;23.15;100.00;101019.94;5053849;28;20025;-67
2022/06/25 10:02:46;;;;;;;7.60;3.00;;;;;;;23.28;100.00;101019.38;5053613;28;20455;-67
2022/06/25 10:05:12;;;;;;;7.32;2.78;;;;;;;23.25;91.24;101022.19;5053796;28;20032;-64
2022/06/25 10:10:22;;;;;;;9.13;2.90;;;;;;;22.55;99.11;101022.53;5050921;28;20348;-68
2022/06/25 10:12:50;;;;;;;10.65;3.10;;;;;;;23.14;92.39;101010.09;5053447;28;20025;-64
2022/06/25 10:15:20;;;;;;;10.25;3.00;;;;;;;22.91;94.64;101012.94;5050134;28;20041;-67
2022/06/25 10:17:47;;;;;;;10.45;3.00;;;;;;;23.58;91.46;101022.44;5049925;28;20032;-66
2022/06/25 10:20:15;;;;;;;12.90;3.10;;;;;;;24.92;84.85;101008.66;5053393;28;20033;-65
2022/06/25 10:22:41;;;;;;;13.02;3.20;;;;;;;26.36;73.82;101017.81;5053755;28;20460;-66
2022/06/25 10:25:10;;;;;;;8.65;2.70;;;;;;;26.50;69.58;101009.69;5053374;28;20021;-64
2022/06/25 10:27:40;;;;;;;8.27;2.70;;;;;;;25.94;71.17;101012.06;5053392;28;20031;-63
2022/06/25 10:30:06;;;;;;;9.85;2.60;;;;;;;25.61;73.39;100998.63;5053119;28;20031;-66
2022/06/25 10:32:34;;;;;;;9.45;2.90;;;;;;;26.01;69.90;101005.38;5053265;28;20021;-63
2022/06/25 10:35:02;;;;;;;7.75;2.60;;;;;;;25.76;73.93;101003.16;5053146;28;20032;-63
2022/06/25 10:38:08;;;;;;;6.43;2.40;;;;;;;26.40;75.56;100993.16;5052971;28;20029;-63
2022/06/25 10:40:54;;;;;;;6.50;2.58;;;;;;;27.42;70.12;100992.34;5051579;28;20513;-63
2022/06/25 10:43:35;;;;;;;7.53;2.25;;;;;;;28.35;60.85;100999.84;5049792;28;20029;-64
2022/06/25 10:46:23;;;;;;;4.82;2.28;;;;;;;30.01;55.36;101006.22;5052704;28;20036;-65
2022/06/25 10:48:55;;;;;;;8.10;2.42;;;;;;;28.32;49.83;100991.91;5049024;28;20496;-63
2022/06/25 10:51:53;;;;;;;7.30;2.33;;;;;;;28.74;55.23;101003.53;5049773;28;20032;-65
2022/06/25 10:54:24;;;;;;;7.78;2.40;;;;;;;27.73;49.92;101003.91;5023161;28;20072;-65
2022/06/25 10:56:58;;;;;;;6.15;2.30;;;;;;;26.25;57.19;101000.31;5030330;28;20033;-65
2022/06/25 10:59:34;;;;;;;8.18;2.50;;;;;;;26.41;57.33;100992.16;5030396;28;20124;-64
2022/06/25 11:02:02;;;;;;;6.10;2.20;;;;;;;27.43;52.61;100999.50;5030390;28;20057;-63
2022/06/25 11:04:28;;;;;;;6.18;2.10;;;;;;;27.81;52.35;100993.44;5029870;28;20041;-65
2022/06/25 11:07:13;;;;;;;6.18;2.20;;;;;;;28.17;50.55;100983.81;5030219;28;20025;-64
2022/06/25 11:09:40;;;;;;;4.40;2.10;;;;;;;28.57;49.51;100985.66;5029943;28;20519;-63
2022/06/25 11:12:06;;;;;;;7.30;2.30;;;;;;;28.73;46.96;100987.31;5030330;28;20486;-65
2022/06/25 11:14:33;;;;;;;4.03;2.20;;;;;;;28.28;50.56;100993.06;5029929;28;20539;-63
2022/06/25 11:17:06;;;;;;;8.00;2.40;;;;;;;28.56;50.28;100992.06;5030110;28;20037;-63
2022/06/25 11:19:32;;;;;;;4.55;2.17;;;;;;;27.65;50.17;100989.97;5030373;28;20025;-63
2022/06/25 11:22:01;;;;;;;4.70;2.28;;;;;;;27.65;53.00;100987.25;5030253;28;20049;-63